sensor_id;sensor_type;location;lat;lon;timestamp;P1;durP1;ratioP1;P2;durP2;ratioP2
34765;SDS011;20984;43.508;1.504;2022-12-07T00:00:49;27.42;;;19.25;;
34765;SDS011;20984;43.508;1.504;2022-12-07T00:03:14;23.20;;;18.88;;
34765;SDS011;20984;43.508;1.504;2022-12-07T00:05:40;29.88;;;19.60;;
34765;SDS011;20984;43.508;1.504;2022-12-07T00:08:06;20.52;;;15.15;;
34765;SDS011;20984;43.508;1.504;2022-12-07T00:10:33;23.80;;;16.02;;
34765;SDS011;20984;43.508;1.504;2022-12-07T00:12:59;21.02;;;15.13;;
34765;SDS011;20984;43.508;1.504;2022-12-07T00:15:25;21.90;;;16.08;;
34765;SDS011;20984;43.508;1.504;2022-12-07T00:17:51;23.13;;;13.55;;
34765;SDS011;20984;43.508;1.504;2022-12-07T00:20:16;18.25;;;13.77;;
34765;SDS011;20984;43.508;1.504;2022-12-07T00:22:42;14.35;;;12.00;;
34765;SDS011;20984;43.508;1.504;2022-12-07T00:25:08;17.10;;;12.77;;
34765;SDS011;20984;43.508;1.504;2022-12-07T00:27:34;14.48;;;11.77;;
34765;SDS011;20984;43.508;1.504;2022-12-07T00:30:00;18.80;;;12.50;;
34765;SDS011;20984;43.508;1.504;2022-12-07T00:32:26;15.63;;;12.93;;
34765;SDS011;20984;43.508;1.504;2022-12-07T00:34:51;18.45;;;12.85;;
34765;SDS011;20984;43.508;1.504;2022-12-07T00:37:17;14.85;;;11.40;;
34765;SDS011;20984;43.508;1.504;2022-12-07T00:39:43;17.42;;;12.75;;
34765;SDS011;20984;43.508;1.504;2022-12-07T00:42:11;19.52;;;14.55;;
34765;SDS011;20984;43.508;1.504;2022-12-07T00:44:37;19.80;;;13.30;;
34765;SDS011;20984;43.508;1.504;2022-12-07T00:47:03;25.30;;;16.13;;
34765;SDS011;20984;43.508;1.504;2022-12-07T00:49:29;27.23;;;18.63;;
34765;SDS011;20984;43.508;1.504;2022-12-07T00:51:54;23.08;;;16.48;;
34765;SDS011;20984;43.508;1.504;2022-12-07T00:54:20;28.65;;;16.60;;
34765;SDS011;20984;43.508;1.504;2022-12-07T00:56:46;21.42;;;14.63;;
34765;SDS011;20984;43.508;1.504;2022-12-07T00:59:13;20.50;;;15.27;;
34765;SDS011;20984;43.508;1.504;2022-12-07T01:01:40;16.80;;;13.32;;
34765;SDS011;20984;43.508;1.504;2022-12-07T01:04:05;15.43;;;12.18;;
34765;SDS011;20984;43.508;1.504;2022-12-07T01:06:31;14.05;;;10.52;;
34765;SDS011;20984;43.508;1.504;2022-12-07T01:08:57;15.25;;;11.52;;
34765;SDS011;20984;43.508;1.504;2022-12-07T01:11:25;12.63;;;9.48;;
34765;SDS011;20984;43.508;1.504;2022-12-07T01:13:53;13.60;;;9.65;;
34765;SDS011;20984;43.508;1.504;2022-12-07T01:16:21;12.60;;;9.02;;
34765;SDS011;20984;43.508;1.504;2022-12-07T01:18:49;14.20;;;10.55;;
34765;SDS011;20984;43.508;1.504;2022-12-07T01:21:18;14.20;;;10.95;;
34765;SDS011;20984;43.508;1.504;2022-12-07T01:23:49;16.27;;;11.32;;
34765;SDS011;20984;43.508;1.504;2022-12-07T01:26:16;15.95;;;11.80;;
34765;SDS011;20984;43.508;1.504;2022-12-07T01:28:44;17.05;;;12.25;;
34765;SDS011;20984;43.508;1.504;2022-12-07T01:31:11;17.10;;;12.63;;
34765;SDS011;20984;43.508;1.504;2022-12-07T01:33:40;18.23;;;12.70;;
34765;SDS011;20984;43.508;1.504;2022-12-07T01:39:09;13.82;;;11.27;;
34765;SDS011;20984;43.508;1.504;2022-12-07T01:41:36;15.98;;;11.98;;
34765;SDS011;20984;43.508;1.504;2022-12-07T01:46:41;15.70;;;11.07;;
34765;SDS011;20984;43.508;1.504;2022-12-07T01:49:10;14.13;;;10.40;;
34765;SDS011;20984;43.508;1.504;2022-12-07T01:51:44;13.90;;;11.07;;
34765;SDS011;20984;43.508;1.504;2022-12-07T01:54:12;12.48;;;10.02;;
34765;SDS011;20984;43.508;1.504;2022-12-07T01:56:40;11.50;;;9.75;;
34765;SDS011;20984;43.508;1.504;2022-12-07T01:59:09;13.88;;;10.13;;
34765;SDS011;20984;43.508;1.504;2022-12-07T02:01:35;12.43;;;9.65;;
34765;SDS011;20984;43.508;1.504;2022-12-07T02:04:01;12.55;;;10.38;;
34765;SDS011;20984;43.508;1.504;2022-12-07T02:06:27;17.75;;;11.90;;
34765;SDS011;20984;43.508;1.504;2022-12-07T02:08:53;14.95;;;10.68;;
34765;SDS011;20984;43.508;1.504;2022-12-07T02:11:19;14.80;;;11.43;;
34765;SDS011;20984;43.508;1.504;2022-12-07T02:13:46;14.75;;;10.80;;
34765;SDS011;20984;43.508;1.504;2022-12-07T02:19:24;13.20;;;9.95;;
34765;SDS011;20984;43.508;1.504;2022-12-07T02:25:08;21.10;;;10.27;;
34765;SDS011;20984;43.508;1.504;2022-12-07T02:30:48;12.82;;;9.55;;
34765;SDS011;20984;43.508;1.504;2022-12-07T02:33:24;13.35;;;10.10;;
34765;SDS011;20984;43.508;1.504;2022-12-07T02:36:07;13.38;;;9.40;;
34765;SDS011;20984;43.508;1.504;2022-12-07T02:38:38;15.48;;;11.02;;
34765;SDS011;20984;43.508;1.504;2022-12-07T02:41:16;12.95;;;10.43;;
34765;SDS011;20984;43.508;1.504;2022-12-07T02:43:53;14.13;;;9.85;;
34765;SDS011;20984;43.508;1.504;2022-12-07T02:46:23;11.77;;;10.35;;
34765;SDS011;20984;43.508;1.504;2022-12-07T02:48:54;14.65;;;10.52;;
34765;SDS011;20984;43.508;1.504;2022-12-07T02:51:21;13.32;;;10.27;;
34765;SDS011;20984;43.508;1.504;2022-12-07T02:53:47;15.30;;;10.63;;
34765;SDS011;20984;43.508;1.504;2022-12-07T02:56:18;12.32;;;10.52;;
34765;SDS011;20984;43.508;1.504;2022-12-07T03:04:31;14.88;;;12.68;;
34765;SDS011;20984;43.508;1.504;2022-12-07T03:07:05;22.67;;;14.80;;
34765;SDS011;20984;43.508;1.504;2022-12-07T03:12:42;22.58;;;15.68;;
34765;SDS011;20984;43.508;1.504;2022-12-07T03:15:32;24.98;;;16.95;;
34765;SDS011;20984;43.508;1.504;2022-12-07T03:18:15;24.92;;;16.50;;
34765;SDS011;20984;43.508;1.504;2022-12-07T03:20:44;27.05;;;19.48;;
34765;SDS011;20984;43.508;1.504;2022-12-07T03:23:13;31.25;;;20.88;;
34765;SDS011;20984;43.508;1.504;2022-12-07T03:25:42;24.15;;;19.42;;
34765;SDS011;20984;43.508;1.504;2022-12-07T03:28:13;26.27;;;18.27;;
34765;SDS011;20984;43.508;1.504;2022-12-07T03:30:49;23.58;;;18.85;;
34765;SDS011;20984;43.508;1.504;2022-12-07T03:35:55;25.77;;;19.07;;
34765;SDS011;20984;43.508;1.504;2022-12-07T03:38:31;26.30;;;19.02;;
34765;SDS011;20984;43.508;1.504;2022-12-07T03:41:14;26.95;;;19.27;;
34765;SDS011;20984;43.508;1.504;2022-12-07T03:43:48;25.58;;;18.20;;
34765;SDS011;20984;43.508;1.504;2022-12-07T03:49:13;25.77;;;19.23;;
34765;SDS011;20984;43.508;1.504;2022-12-07T03:54:22;28.60;;;21.02;;
34765;SDS011;20984;43.508;1.504;2022-12-07T03:56:54;31.35;;;21.23;;
34765;SDS011;20984;43.508;1.504;2022-12-07T03:59:21;27.30;;;20.67;;
34765;SDS011;20984;43.508;1.504;2022-12-07T04:01:54;28.13;;;20.08;;
34765;SDS011;20984;43.508;1.504;2022-12-07T04:04:22;30.42;;;20.08;;
34765;SDS011;20984;43.508;1.504;2022-12-07T04:06:49;27.83;;;20.75;;
34765;SDS011;20984;43.508;1.504;2022-12-07T04:09:15;26.95;;;17.92;;
34765;SDS011;20984;43.508;1.504;2022-12-07T04:11:42;25.55;;;18.58;;
34765;SDS011;20984;43.508;1.504;2022-12-07T04:14:08;26.10;;;19.25;;
34765;SDS011;20984;43.508;1.504;2022-12-07T04:16:46;25.42;;;18.63;;
34765;SDS011;20984;43.508;1.504;2022-12-07T04:19:14;22.92;;;18.15;;
34765;SDS011;20984;43.508;1.504;2022-12-07T04:21:40;22.33;;;16.88;;
34765;SDS011;20984;43.508;1.504;2022-12-07T04:24:06;25.33;;;16.73;;
34765;SDS011;20984;43.508;1.504;2022-12-07T04:26:32;20.02;;;16.67;;
34765;SDS011;20984;43.508;1.504;2022-12-07T04:28:58;20.95;;;15.73;;
34765;SDS011;20984;43.508;1.504;2022-12-07T04:31:24;21.15;;;15.60;;
34765;SDS011;20984;43.508;1.504;2022-12-07T04:33:50;23.70;;;15.68;;
34765;SDS011;20984;43.508;1.504;2022-12-07T04:36:15;22.63;;;15.18;;
34765;SDS011;20984;43.508;1.504;2022-12-07T04:38:42;21.80;;;15.23;;
34765;SDS011;20984;43.508;1.504;2022-12-07T04:41:08;19.55;;;15.10;;
34765;SDS011;20984;43.508;1.504;2022-12-07T04:43:34;22.05;;;15.15;;
34765;SDS011;20984;43.508;1.504;2022-12-07T04:46:00;21.58;;;15.35;;
34765;SDS011;20984;43.508;1.504;2022-12-07T04:48:27;19.88;;;15.10;;
34765;SDS011;20984;43.508;1.504;2022-12-07T04:50:53;19.58;;;14.43;;
34765;SDS011;20984;43.508;1.504;2022-12-07T04:53:19;23.42;;;15.57;;
34765;SDS011;20984;43.508;1.504;2022-12-07T04:55:45;20.95;;;16.30;;
34765;SDS011;20984;43.508;1.504;2022-12-07T04:58:11;22.92;;;15.60;;
34765;SDS011;20984;43.508;1.504;2022-12-07T05:00:38;17.45;;;15.20;;
34765;SDS011;20984;43.508;1.504;2022-12-07T05:03:04;22.17;;;16.23;;
34765;SDS011;20984;43.508;1.504;2022-12-07T05:05:31;22.10;;;15.52;;
34765;SDS011;20984;43.508;1.504;2022-12-07T05:07:56;20.80;;;15.77;;
34765;SDS011;20984;43.508;1.504;2022-12-07T05:10:22;20.75;;;15.90;;
34765;SDS011;20984;43.508;1.504;2022-12-07T05:12:48;19.48;;;15.60;;
34765;SDS011;20984;43.508;1.504;2022-12-07T05:15:15;24.15;;;16.15;;
34765;SDS011;20984;43.508;1.504;2022-12-07T05:17:41;20.33;;;15.50;;
34765;SDS011;20984;43.508;1.504;2022-12-07T05:20:07;23.30;;;16.95;;
34765;SDS011;20984;43.508;1.504;2022-12-07T05:22:34;26.92;;;16.55;;
34765;SDS011;20984;43.508;1.504;2022-12-07T05:25:00;22.45;;;16.33;;
34765;SDS011;20984;43.508;1.504;2022-12-07T05:27:26;21.85;;;17.08;;
34765;SDS011;20984;43.508;1.504;2022-12-07T05:29:52;22.10;;;16.02;;
34765;SDS011;20984;43.508;1.504;2022-12-07T05:32:18;23.55;;;16.30;;
34765;SDS011;20984;43.508;1.504;2022-12-07T05:34:44;20.05;;;15.52;;
34765;SDS011;20984;43.508;1.504;2022-12-07T05:37:10;22.60;;;14.93;;
34765;SDS011;20984;43.508;1.504;2022-12-07T05:39:36;22.67;;;16.50;;
34765;SDS011;20984;43.508;1.504;2022-12-07T05:42:05;19.98;;;16.38;;
34765;SDS011;20984;43.508;1.504;2022-12-07T05:44:37;21.45;;;16.35;;
34765;SDS011;20984;43.508;1.504;2022-12-07T05:47:04;19.65;;;15.32;;
34765;SDS011;20984;43.508;1.504;2022-12-07T05:49:30;22.92;;;16.73;;
34765;SDS011;20984;43.508;1.504;2022-12-07T05:51:56;19.20;;;15.68;;
34765;SDS011;20984;43.508;1.504;2022-12-07T05:54:23;21.75;;;15.63;;
34765;SDS011;20984;43.508;1.504;2022-12-07T05:56:49;21.67;;;16.17;;
34765;SDS011;20984;43.508;1.504;2022-12-07T05:59:15;21.75;;;16.42;;
34765;SDS011;20984;43.508;1.504;2022-12-07T06:01:47;21.00;;;15.98;;
34765;SDS011;20984;43.508;1.504;2022-12-07T06:04:19;22.20;;;15.95;;
34765;SDS011;20984;43.508;1.504;2022-12-07T06:06:46;22.55;;;15.55;;
34765;SDS011;20984;43.508;1.504;2022-12-07T06:09:13;22.10;;;15.85;;
34765;SDS011;20984;43.508;1.504;2022-12-07T06:11:39;24.35;;;16.13;;
34765;SDS011;20984;43.508;1.504;2022-12-07T06:14:24;21.35;;;15.93;;
34765;SDS011;20984;43.508;1.504;2022-12-07T06:16:50;20.42;;;15.80;;
34765;SDS011;20984;43.508;1.504;2022-12-07T06:19:16;23.92;;;17.50;;
34765;SDS011;20984;43.508;1.504;2022-12-07T06:21:42;26.00;;;17.35;;
34765;SDS011;20984;43.508;1.504;2022-12-07T06:24:11;26.13;;;18.02;;
34765;SDS011;20984;43.508;1.504;2022-12-07T06:26:38;24.98;;;17.50;;
34765;SDS011;20984;43.508;1.504;2022-12-07T06:29:06;22.08;;;17.88;;
34765;SDS011;20984;43.508;1.504;2022-12-07T06:31:32;24.20;;;18.25;;
34765;SDS011;20984;43.508;1.504;2022-12-07T06:33:58;26.48;;;19.98;;
34765;SDS011;20984;43.508;1.504;2022-12-07T06:36:29;26.05;;;17.67;;
34765;SDS011;20984;43.508;1.504;2022-12-07T06:38:55;39.42;;;25.75;;
34765;SDS011;20984;43.508;1.504;2022-12-07T06:41:21;27.83;;;20.02;;
34765;SDS011;20984;43.508;1.504;2022-12-07T06:43:47;22.45;;;17.33;;
34765;SDS011;20984;43.508;1.504;2022-12-07T06:46:13;24.85;;;19.92;;
34765;SDS011;20984;43.508;1.504;2022-12-07T06:48:40;24.67;;;18.25;;
34765;SDS011;20984;43.508;1.504;2022-12-07T06:51:06;27.73;;;19.65;;
34765;SDS011;20984;43.508;1.504;2022-12-07T06:53:32;26.38;;;19.15;;
34765;SDS011;20984;43.508;1.504;2022-12-07T06:55:58;25.20;;;19.58;;
34765;SDS011;20984;43.508;1.504;2022-12-07T06:58:24;29.73;;;19.65;;
34765;SDS011;20984;43.508;1.504;2022-12-07T07:00:50;29.38;;;20.40;;
34765;SDS011;20984;43.508;1.504;2022-12-07T07:03:16;28.02;;;19.20;;
34765;SDS011;20984;43.508;1.504;2022-12-07T07:05:43;25.40;;;18.58;;
34765;SDS011;20984;43.508;1.504;2022-12-07T07:08:10;25.98;;;19.17;;
34765;SDS011;20984;43.508;1.504;2022-12-07T07:10:36;24.42;;;19.30;;
34765;SDS011;20984;43.508;1.504;2022-12-07T07:13:02;27.33;;;19.95;;
34765;SDS011;20984;43.508;1.504;2022-12-07T07:15:29;28.38;;;19.70;;
34765;SDS011;20984;43.508;1.504;2022-12-07T07:17:54;24.95;;;19.40;;
34765;SDS011;20984;43.508;1.504;2022-12-07T07:20:20;28.58;;;20.30;;
34765;SDS011;20984;43.508;1.504;2022-12-07T07:22:47;26.08;;;18.92;;
34765;SDS011;20984;43.508;1.504;2022-12-07T07:25:13;32.50;;;23.63;;
34765;SDS011;20984;43.508;1.504;2022-12-07T07:27:39;33.47;;;22.75;;
34765;SDS011;20984;43.508;1.504;2022-12-07T07:30:06;30.17;;;21.92;;
34765;SDS011;20984;43.508;1.504;2022-12-07T07:32:32;27.20;;;18.60;;
34765;SDS011;20984;43.508;1.504;2022-12-07T07:34:58;30.83;;;19.25;;
34765;SDS011;20984;43.508;1.504;2022-12-07T07:37:24;24.88;;;18.77;;
34765;SDS011;20984;43.508;1.504;2022-12-07T07:39:50;25.90;;;19.05;;
34765;SDS011;20984;43.508;1.504;2022-12-07T07:42:16;29.13;;;21.77;;
34765;SDS011;20984;43.508;1.504;2022-12-07T07:44:42;26.00;;;20.65;;
34765;SDS011;20984;43.508;1.504;2022-12-07T07:47:08;26.67;;;20.80;;
34765;SDS011;20984;43.508;1.504;2022-12-07T07:49:34;31.88;;;22.50;;
34765;SDS011;20984;43.508;1.504;2022-12-07T07:52:00;40.05;;;26.77;;
34765;SDS011;20984;43.508;1.504;2022-12-07T07:54:26;28.40;;;22.92;;
34765;SDS011;20984;43.508;1.504;2022-12-07T07:56:52;30.55;;;24.80;;
34765;SDS011;20984;43.508;1.504;2022-12-07T07:59:18;41.60;;;27.17;;
34765;SDS011;20984;43.508;1.504;2022-12-07T08:01:44;38.17;;;26.77;;
34765;SDS011;20984;43.508;1.504;2022-12-07T08:04:10;74.30;;;40.78;;
34765;SDS011;20984;43.508;1.504;2022-12-07T08:06:36;41.95;;;27.63;;
34765;SDS011;20984;43.508;1.504;2022-12-07T08:09:02;102.03;;;51.83;;
34765;SDS011;20984;43.508;1.504;2022-12-07T08:11:28;32.50;;;24.27;;
34765;SDS011;20984;43.508;1.504;2022-12-07T08:13:54;34.38;;;24.80;;
34765;SDS011;20984;43.508;1.504;2022-12-07T08:16:20;30.70;;;24.25;;
34765;SDS011;20984;43.508;1.504;2022-12-07T08:18:46;37.75;;;25.95;;
34765;SDS011;20984;43.508;1.504;2022-12-07T08:21:13;47.00;;;28.10;;
34765;SDS011;20984;43.508;1.504;2022-12-07T08:23:39;55.40;;;33.45;;
34765;SDS011;20984;43.508;1.504;2022-12-07T08:26:07;44.15;;;27.35;;
34765;SDS011;20984;43.508;1.504;2022-12-07T08:28:35;33.75;;;24.50;;
34765;SDS011;20984;43.508;1.504;2022-12-07T08:31:02;42.88;;;26.35;;
34765;SDS011;20984;43.508;1.504;2022-12-07T08:33:29;33.67;;;23.75;;
34765;SDS011;20984;43.508;1.504;2022-12-07T08:35:55;32.03;;;22.05;;
34765;SDS011;20984;43.508;1.504;2022-12-07T08:38:30;34.53;;;23.88;;
34765;SDS011;20984;43.508;1.504;2022-12-07T08:40:56;289.25;;;170.25;;
34765;SDS011;20984;43.508;1.504;2022-12-07T08:43:23;176.70;;;95.68;;
34765;SDS011;20984;43.508;1.504;2022-12-07T08:48:37;34.50;;;26.95;;
34765;SDS011;20984;43.508;1.504;2022-12-07T08:51:12;182.10;;;101.05;;
34765;SDS011;20984;43.508;1.504;2022-12-07T08:53:38;116.60;;;68.70;;
34765;SDS011;20984;43.508;1.504;2022-12-07T08:56:05;143.10;;;84.15;;
34765;SDS011;20984;43.508;1.504;2022-12-07T08:58:32;249.38;;;142.93;;
34765;SDS011;20984;43.508;1.504;2022-12-07T09:00:59;59.08;;;38.55;;
34765;SDS011;20984;43.508;1.504;2022-12-07T09:03:25;52.53;;;33.60;;
34765;SDS011;20984;43.508;1.504;2022-12-07T09:05:52;48.58;;;31.63;;
34765;SDS011;20984;43.508;1.504;2022-12-07T09:08:18;43.88;;;31.00;;
34765;SDS011;20984;43.508;1.504;2022-12-07T09:10:45;42.78;;;30.58;;
34765;SDS011;20984;43.508;1.504;2022-12-07T09:13:12;42.30;;;32.00;;
34765;SDS011;20984;43.508;1.504;2022-12-07T09:15:38;132.57;;;77.47;;
34765;SDS011;20984;43.508;1.504;2022-12-07T09:18:04;46.50;;;30.67;;
34765;SDS011;20984;43.508;1.504;2022-12-07T09:20:30;120.55;;;70.00;;
34765;SDS011;20984;43.508;1.504;2022-12-07T09:22:56;64.13;;;44.20;;
34765;SDS011;20984;43.508;1.504;2022-12-07T09:25:22;44.67;;;30.13;;
34765;SDS011;20984;43.508;1.504;2022-12-07T09:27:48;43.60;;;30.85;;
34765;SDS011;20984;43.508;1.504;2022-12-07T09:30:20;43.08;;;31.27;;
34765;SDS011;20984;43.508;1.504;2022-12-07T09:32:45;101.93;;;63.08;;
34765;SDS011;20984;43.508;1.504;2022-12-07T09:35:11;45.42;;;32.35;;
34765;SDS011;20984;43.508;1.504;2022-12-07T09:37:37;37.33;;;29.05;;
34765;SDS011;20984;43.508;1.504;2022-12-07T09:40:03;38.80;;;27.52;;
34765;SDS011;20984;43.508;1.504;2022-12-07T09:42:37;40.38;;;28.00;;
34765;SDS011;20984;43.508;1.504;2022-12-07T09:45:06;38.13;;;27.52;;
34765;SDS011;20984;43.508;1.504;2022-12-07T09:47:37;40.38;;;27.80;;
34765;SDS011;20984;43.508;1.504;2022-12-07T09:50:06;39.38;;;28.65;;
34765;SDS011;20984;43.508;1.504;2022-12-07T09:52:38;42.05;;;28.58;;
34765;SDS011;20984;43.508;1.504;2022-12-07T09:55:09;43.00;;;28.67;;
34765;SDS011;20984;43.508;1.504;2022-12-07T09:57:37;40.03;;;30.67;;
34765;SDS011;20984;43.508;1.504;2022-12-07T10:00:05;43.25;;;33.70;;
34765;SDS011;20984;43.508;1.504;2022-12-07T10:02:41;51.75;;;35.80;;
34765;SDS011;20984;43.508;1.504;2022-12-07T10:05:26;41.63;;;29.92;;
34765;SDS011;20984;43.508;1.504;2022-12-07T10:07:55;45.28;;;32.47;;
34765;SDS011;20984;43.508;1.504;2022-12-07T10:10:25;45.60;;;35.05;;
34765;SDS011;20984;43.508;1.504;2022-12-07T10:13:05;73.35;;;48.42;;
34765;SDS011;20984;43.508;1.504;2022-12-07T10:15:55;229.20;;;127.20;;
34765;SDS011;20984;43.508;1.504;2022-12-07T10:21:03;91.57;;;61.13;;
34765;SDS011;20984;43.508;1.504;2022-12-07T10:23:41;51.72;;;35.03;;
34765;SDS011;20984;43.508;1.504;2022-12-07T10:26:31;44.88;;;33.95;;
34765;SDS011;20984;43.508;1.504;2022-12-07T10:29:21;43.95;;;30.77;;
34765;SDS011;20984;43.508;1.504;2022-12-07T10:31:46;51.53;;;33.55;;
34765;SDS011;20984;43.508;1.504;2022-12-07T10:34:38;80.25;;;57.13;;
34765;SDS011;20984;43.508;1.504;2022-12-07T10:39:46;39.10;;;28.58;;
34765;SDS011;20984;43.508;1.504;2022-12-07T10:42:27;39.53;;;29.35;;
34765;SDS011;20984;43.508;1.504;2022-12-07T10:45:12;42.92;;;30.48;;
34765;SDS011;20984;43.508;1.504;2022-12-07T10:48:32;72.95;;;57.00;;
34765;SDS011;20984;43.508;1.504;2022-12-07T11:09:53;33.80;;;24.35;;
34765;SDS011;20984;43.508;1.504;2022-12-07T11:18:16;40.78;;;25.77;;
34765;SDS011;20984;43.508;1.504;2022-12-07T11:21:09;37.25;;;26.58;;
34765;SDS011;20984;43.508;1.504;2022-12-07T11:26:12;34.08;;;25.63;;
34765;SDS011;20984;43.508;1.504;2022-12-07T11:29:03;36.38;;;25.70;;
34765;SDS011;20984;43.508;1.504;2022-12-07T11:31:36;33.22;;;24.02;;
34765;SDS011;20984;43.508;1.504;2022-12-07T11:34:07;32.10;;;22.13;;
34765;SDS011;20984;43.508;1.504;2022-12-07T11:36:47;33.97;;;22.95;;
34765;SDS011;20984;43.508;1.504;2022-12-07T11:41:42;28.15;;;20.50;;
34765;SDS011;20984;43.508;1.504;2022-12-07T11:44:27;28.83;;;19.92;;
34765;SDS011;20984;43.508;1.504;2022-12-07T11:47:12;26.83;;;19.38;;
34765;SDS011;20984;43.508;1.504;2022-12-07T11:50:22;19.63;;;15.60;;
34765;SDS011;20984;43.508;1.504;2022-12-07T11:55:26;18.67;;;15.55;;
34765;SDS011;20984;43.508;1.504;2022-12-07T11:58:23;19.13;;;15.02;;
34765;SDS011;20984;43.508;1.504;2022-12-07T12:03:47;23.42;;;16.80;;
34765;SDS011;20984;43.508;1.504;2022-12-07T12:06:18;25.38;;;16.48;;
34765;SDS011;20984;43.508;1.504;2022-12-07T12:16:37;19.50;;;14.10;;
34765;SDS011;20984;43.508;1.504;2022-12-07T12:22:15;14.75;;;12.63;;
34765;SDS011;20984;43.508;1.504;2022-12-07T12:33:01;16.98;;;12.38;;
34765;SDS011;20984;43.508;1.504;2022-12-07T12:35:40;16.85;;;11.88;;
34765;SDS011;20984;43.508;1.504;2022-12-07T12:40:47;16.30;;;13.00;;
34765;SDS011;20984;43.508;1.504;2022-12-07T12:48:56;18.30;;;12.23;;
34765;SDS011;20984;43.508;1.504;2022-12-07T12:57:17;17.40;;;13.32;;
34765;SDS011;20984;43.508;1.504;2022-12-07T13:05:01;17.58;;;12.98;;
34765;SDS011;20984;43.508;1.504;2022-12-07T13:15:34;19.00;;;13.25;;
34765;SDS011;20984;43.508;1.504;2022-12-07T13:18:02;15.35;;;11.35;;
34765;SDS011;20984;43.508;1.504;2022-12-07T13:20:49;21.00;;;13.38;;
34765;SDS011;20984;43.508;1.504;2022-12-07T13:34:37;17.10;;;12.07;;
34765;SDS011;20984;43.508;1.504;2022-12-07T13:42:28;17.70;;;12.00;;
34765;SDS011;20984;43.508;1.504;2022-12-07T13:44:59;15.02;;;11.63;;
34765;SDS011;20984;43.508;1.504;2022-12-07T13:47:51;18.55;;;10.75;;
34765;SDS011;20984;43.508;1.504;2022-12-07T13:52:56;13.63;;;10.07;;
34765;SDS011;20984;43.508;1.504;2022-12-07T13:55:24;17.83;;;11.15;;
34765;SDS011;20984;43.508;1.504;2022-12-07T13:57:52;14.52;;;11.23;;
34765;SDS011;20984;43.508;1.504;2022-12-07T14:00:20;15.93;;;11.63;;
34765;SDS011;20984;43.508;1.504;2022-12-07T14:03:00;14.52;;;10.98;;
34765;SDS011;20984;43.508;1.504;2022-12-07T14:05:30;18.58;;;11.98;;
34765;SDS011;20984;43.508;1.504;2022-12-07T14:08:01;20.55;;;11.23;;
34765;SDS011;20984;43.508;1.504;2022-12-07T14:10:30;15.25;;;9.75;;
34765;SDS011;20984;43.508;1.504;2022-12-07T14:12:58;17.65;;;10.25;;
34765;SDS011;20984;43.508;1.504;2022-12-07T14:15:29;15.07;;;10.50;;
34765;SDS011;20984;43.508;1.504;2022-12-07T14:17:55;10.45;;;8.93;;
34765;SDS011;20984;43.508;1.504;2022-12-07T14:22:58;18.88;;;10.20;;
34765;SDS011;20984;43.508;1.504;2022-12-07T14:25:27;13.70;;;9.88;;
34765;SDS011;20984;43.508;1.504;2022-12-07T14:28:02;18.02;;;10.48;;
34765;SDS011;20984;43.508;1.504;2022-12-07T14:30:31;19.70;;;10.57;;
34765;SDS011;20984;43.508;1.504;2022-12-07T14:33:00;18.15;;;10.27;;
34765;SDS011;20984;43.508;1.504;2022-12-07T14:35:28;17.75;;;11.07;;
34765;SDS011;20984;43.508;1.504;2022-12-07T14:37:54;20.88;;;12.30;;
34765;SDS011;20984;43.508;1.504;2022-12-07T14:40:22;16.15;;;9.70;;
34765;SDS011;20984;43.508;1.504;2022-12-07T14:43:02;22.23;;;11.00;;
34765;SDS011;20984;43.508;1.504;2022-12-07T14:45:32;15.25;;;10.70;;
34765;SDS011;20984;43.508;1.504;2022-12-07T14:47:58;14.45;;;9.93;;
34765;SDS011;20984;43.508;1.504;2022-12-07T14:50:23;12.93;;;9.45;;
34765;SDS011;20984;43.508;1.504;2022-12-07T14:52:56;15.30;;;9.95;;
34765;SDS011;20984;43.508;1.504;2022-12-07T14:55:28;22.58;;;11.15;;
34765;SDS011;20984;43.508;1.504;2022-12-07T14:57:55;20.83;;;10.30;;
34765;SDS011;20984;43.508;1.504;2022-12-07T15:00:22;26.65;;;9.40;;
34765;SDS011;20984;43.508;1.504;2022-12-07T15:02:52;12.80;;;9.70;;
34765;SDS011;20984;43.508;1.504;2022-12-07T15:05:18;14.80;;;10.50;;
34765;SDS011;20984;43.508;1.504;2022-12-07T15:07:44;13.38;;;9.05;;
34765;SDS011;20984;43.508;1.504;2022-12-07T15:10:21;12.68;;;9.10;;
34765;SDS011;20984;43.508;1.504;2022-12-07T15:12:49;14.38;;;9.48;;
34765;SDS011;20984;43.508;1.504;2022-12-07T15:15:16;23.73;;;9.88;;
34765;SDS011;20984;43.508;1.504;2022-12-07T15:17:42;12.02;;;8.27;;
34765;SDS011;20984;43.508;1.504;2022-12-07T15:20:12;10.68;;;8.70;;
34765;SDS011;20984;43.508;1.504;2022-12-07T15:22:41;17.92;;;8.93;;
34765;SDS011;20984;43.508;1.504;2022-12-07T15:25:08;11.85;;;9.02;;
34765;SDS011;20984;43.508;1.504;2022-12-07T15:27:37;14.63;;;9.27;;
34765;SDS011;20984;43.508;1.504;2022-12-07T15:30:03;9.60;;;8.40;;
34765;SDS011;20984;43.508;1.504;2022-12-07T15:32:29;19.38;;;13.73;;
34765;SDS011;20984;43.508;1.504;2022-12-07T15:34:55;18.95;;;14.88;;
34765;SDS011;20984;43.508;1.504;2022-12-07T15:37:21;28.02;;;18.17;;
34765;SDS011;20984;43.508;1.504;2022-12-07T15:39:47;24.65;;;16.40;;
34765;SDS011;20984;43.508;1.504;2022-12-07T15:42:13;21.90;;;13.98;;
34765;SDS011;20984;43.508;1.504;2022-12-07T15:44:38;19.40;;;13.27;;
34765;SDS011;20984;43.508;1.504;2022-12-07T15:47:23;17.65;;;12.63;;
34765;SDS011;20984;43.508;1.504;2022-12-07T15:49:48;16.80;;;10.93;;
34765;SDS011;20984;43.508;1.504;2022-12-07T15:52:14;16.23;;;10.73;;
34765;SDS011;20984;43.508;1.504;2022-12-07T15:54:40;18.88;;;13.68;;
34765;SDS011;20984;43.508;1.504;2022-12-07T15:57:06;20.02;;;13.60;;
34765;SDS011;20984;43.508;1.504;2022-12-07T15:59:32;13.77;;;9.80;;
34765;SDS011;20984;43.508;1.504;2022-12-07T16:01:58;13.02;;;10.25;;
34765;SDS011;20984;43.508;1.504;2022-12-07T16:04:24;13.85;;;10.40;;
34765;SDS011;20984;43.508;1.504;2022-12-07T16:06:53;14.73;;;10.48;;
34765;SDS011;20984;43.508;1.504;2022-12-07T16:09:19;17.05;;;12.27;;
34765;SDS011;20984;43.508;1.504;2022-12-07T16:11:45;20.58;;;14.35;;
34765;SDS011;20984;43.508;1.504;2022-12-07T16:14:11;27.45;;;16.25;;
34765;SDS011;20984;43.508;1.504;2022-12-07T16:16:37;24.52;;;15.90;;
34765;SDS011;20984;43.508;1.504;2022-12-07T16:19:05;23.83;;;15.00;;
34765;SDS011;20984;43.508;1.504;2022-12-07T16:21:33;35.88;;;21.15;;
34765;SDS011;20984;43.508;1.504;2022-12-07T16:23:59;17.38;;;13.13;;
34765;SDS011;20984;43.508;1.504;2022-12-07T16:26:25;29.88;;;17.77;;
34765;SDS011;20984;43.508;1.504;2022-12-07T16:28:51;20.27;;;12.68;;
34765;SDS011;20984;43.508;1.504;2022-12-07T16:31:22;16.95;;;11.85;;
34765;SDS011;20984;43.508;1.504;2022-12-07T16:33:50;19.08;;;13.38;;
34765;SDS011;20984;43.508;1.504;2022-12-07T16:36:18;19.38;;;12.25;;
34765;SDS011;20984;43.508;1.504;2022-12-07T16:38:47;14.65;;;11.15;;
34765;SDS011;20984;43.508;1.504;2022-12-07T16:41:13;15.80;;;10.45;;
34765;SDS011;20984;43.508;1.504;2022-12-07T16:43:39;15.30;;;10.73;;
34765;SDS011;20984;43.508;1.504;2022-12-07T16:46:05;17.48;;;10.15;;
34765;SDS011;20984;43.508;1.504;2022-12-07T16:48:32;17.65;;;12.45;;
34765;SDS011;20984;43.508;1.504;2022-12-07T16:51:04;19.25;;;12.75;;
34765;SDS011;20984;43.508;1.504;2022-12-07T16:53:32;13.77;;;12.18;;
34765;SDS011;20984;43.508;1.504;2022-12-07T16:55:57;14.23;;;10.60;;